createdAt,value
2023-01-17T05:34:13.994Z,97893.56
2023-01-17T05:37:17.415Z,97893.56
2023-01-17T05:40:21.686Z,97895.25
2023-01-17T05:43:24.398Z,97892.59
2023-01-17T05:46:27.111Z,97911.81
2023-01-17T05:49:29.779Z,97923.09
2023-01-17T05:52:32.279Z,97924.03
2023-01-17T05:55:35.044Z,97931.28
2023-01-17T05:58:38.314Z,97933.78
2023-01-17T06:01:40.959Z,97939.75
2023-01-17T06:04:43.596Z,97939.84
2023-01-17T06:07:46.399Z,97950.75
2023-01-17T06:10:49.133Z,97948.47
2023-01-17T06:13:51.709Z,97943.19
2023-01-17T06:16:54.515Z,97955.03
2023-01-17T06:19:57.068Z,97949.75
2023-01-17T06:23:01.986Z,97957.97
2023-01-17T06:26:04.661Z,97959.44
2023-01-17T06:29:07.195Z,97980.28
2023-01-17T06:32:09.821Z,97980.94
2023-01-17T06:35:12.354Z,97990.56
2023-01-17T06:38:14.945Z,97992.47
2023-01-17T06:41:17.557Z,97994.31
2023-01-17T06:44:20.137Z,97995.78
2023-01-17T06:47:22.791Z,97996.50
2023-01-17T06:50:26.167Z,97999.72
2023-01-17T06:53:28.759Z,98003.50
2023-01-17T06:56:32.424Z,98009.75
2023-01-17T06:59:35.192Z,98009.69
2023-01-17T07:02:39.297Z,98016.81
2023-01-17T07:05:41.982Z,98023.22
2023-01-17T07:08:44.646Z,98031.66
2023-01-17T07:11:47.536Z,98028.97
2023-01-17T07:14:50.277Z,98033.22
2023-01-17T07:17:52.890Z,98031.66
2023-01-17T07:20:56.264Z,98037.88
2023-01-17T07:23:58.835Z,98034.66
2023-01-17T07:27:01.370Z,98052.44
2023-01-17T07:30:04.557Z,98058.44
2023-01-17T07:33:07.707Z,98056.50
2023-01-17T07:36:12.079Z,98052.84
2023-01-17T07:39:14.606Z,98057.84
2023-01-17T07:42:17.250Z,98072.06
2023-01-17T07:45:21.490Z,98082.34
2023-01-17T07:48:24.478Z,98083.91
2023-01-17T07:51:27.166Z,98085.56
2023-01-17T07:54:29.716Z,98096.47
2023-01-17T07:57:33.101Z,98104.94
2023-01-17T08:00:35.672Z,98106.06
2023-01-17T08:03:41.319Z,98110.47
2023-01-17T08:06:47.468Z,98117.00
2023-01-17T08:09:50.636Z,98120.53
2023-01-17T08:12:53.226Z,98125.59
2023-01-17T08:15:57.904Z,98121.53
2023-01-17T08:19:01.271Z,98127.00
2023-01-17T08:22:03.947Z,98121.75
2023-01-17T08:25:06.729Z,98132.59
2023-01-17T08:28:09.248Z,98121.38
2023-01-17T08:31:11.863Z,98135.38
2023-01-17T08:34:18.172Z,98148.16
2023-01-17T08:37:20.758Z,98151.91
2023-01-17T08:40:23.795Z,98161.25
2023-01-17T08:43:27.079Z,98163.19
2023-01-17T08:46:32.820Z,98155.91
2023-01-17T08:49:35.738Z,98153.38
2023-01-17T08:52:38.325Z,98168.56
2023-01-17T08:55:41.157Z,98173.31
2023-01-17T08:58:43.712Z,98179.56
2023-01-17T09:01:46.431Z,98185.47
2023-01-17T09:04:49.464Z,98186.13
2023-01-17T09:07:52.001Z,98179.53
2023-01-17T09:10:54.545Z,98190.84
2023-01-17T09:13:57.064Z,98196.94
2023-01-17T09:17:00.121Z,98206.22
2023-01-17T09:20:02.844Z,98201.25
2023-01-17T09:23:05.427Z,98210.97
2023-01-17T09:26:08.093Z,98200.84
2023-01-17T09:29:10.595Z,98203.66
2023-01-17T09:32:13.202Z,98220.38
2023-01-17T09:35:18.505Z,98219.84
2023-01-17T09:38:21.849Z,98213.03
2023-01-17T09:41:31.137Z,98218.72
2023-01-17T09:44:51.708Z,98229.62
2023-01-17T09:47:54.333Z,98230.25
2023-01-17T09:51:00.581Z,98221.78
2023-01-17T09:54:03.682Z,98227.81
2023-01-17T09:57:13.805Z,98236.59
2023-01-17T10:00:34.874Z,98237.12
2023-01-17T10:04:15.752Z,98224.78
2023-01-17T10:07:53.144Z,98234.22
2023-01-17T10:11:07.902Z,98239.59
2023-01-17T10:14:41.637Z,98247.81
2023-01-17T10:18:01.406Z,98240.87
2023-01-17T10:21:19.336Z,98252.44
2023-01-17T10:24:43.018Z,98244.94
2023-01-17T10:27:59.253Z,98233.78
2023-01-17T10:31:07.276Z,98219.81
2023-01-17T10:34:18.980Z,98226.91
2023-01-17T10:37:42.685Z,98230.09
2023-01-17T10:40:50.373Z,98241.16
2023-01-17T10:43:58.977Z,98227.75
2023-01-17T10:47:10.577Z,98239.25
2023-01-17T10:50:16.627Z,98232.37
2023-01-17T10:53:35.514Z,98222.31
2023-01-17T10:56:38.093Z,98222.72
2023-01-17T10:59:40.711Z,98225.22
2023-01-17T11:02:43.441Z,98221.94
2023-01-17T11:05:46.033Z,98219.81
2023-01-17T11:08:58.307Z,98211.50
2023-01-17T11:12:00.903Z,98197.56
2023-01-17T11:15:06.206Z,98186.19
2023-01-17T11:18:13.757Z,98185.63
2023-01-17T11:21:21.300Z,98184.22
2023-01-17T11:24:31.462Z,98182.72
2023-01-17T11:27:35.293Z,98180.56
2023-01-17T11:30:37.766Z,98168.53
2023-01-17T11:33:48.261Z,98167.84
2023-01-17T11:37:10.802Z,98175.72
2023-01-17T11:40:26.116Z,98177.75
2023-01-17T11:43:28.706Z,98183.84
2023-01-17T11:46:32.332Z,98174.09
2023-01-17T11:49:34.950Z,98171.97
2023-01-17T11:52:39.234Z,98176.78
2023-01-17T11:56:01.247Z,98178.87
2023-01-17T11:59:12.649Z,98193.00
2023-01-17T12:02:43.344Z,98183.84
2023-01-17T12:05:47.263Z,98190.47
2023-01-17T12:09:23.130Z,98186.75
2023-01-17T12:12:49.393Z,98182.56
2023-01-17T12:16:00.149Z,98189.94
2023-01-17T12:19:39.078Z,98192.41
2023-01-17T12:22:45.651Z,98185.84
2023-01-17T12:25:49.867Z,98192.50
2023-01-17T12:28:58.317Z,98189.25
2023-01-17T12:32:28.523Z,98180.34
2023-01-17T12:35:38.828Z,98168.88
2023-01-17T12:38:41.374Z,98178.97
2023-01-17T12:41:59.543Z,98180.72
2023-01-17T12:45:12.275Z,98187.84
2023-01-17T12:48:22.864Z,98193.91
2023-01-17T12:51:30.126Z,98189.28
2023-01-17T12:54:41.159Z,98183.06
2023-01-17T12:57:46.668Z,98189.09
2023-01-17T13:00:56.912Z,98188.16
2023-01-17T13:04:24.226Z,98176.25
2023-01-17T13:07:49.774Z,98172.31
2023-01-17T13:11:05.220Z,98165.53
2023-01-17T13:14:09.407Z,98174.91
2023-01-17T13:17:26.672Z,98184.75
2023-01-17T13:20:50.707Z,98184.88
2023-01-17T13:24:07.839Z,98190.69
2023-01-17T13:27:20.086Z,98196.22
2023-01-17T13:30:35.494Z,98208.63
2023-01-17T13:33:59.669Z,98207.19
2023-01-17T13:37:08.098Z,98200.53
2023-01-17T13:40:49.543Z,98191.62
2023-01-17T13:44:10.702Z,98175.09
2023-01-17T13:47:19.370Z,98163.38
2023-01-17T13:50:47.464Z,98162.94
2023-01-17T13:53:50.121Z,98154.66
2023-01-17T13:56:52.816Z,98151.53
2023-01-17T14:00:21.435Z,98149.91
2023-01-17T14:03:49.159Z,98146.41
2023-01-17T14:06:54.029Z,98137.66
2023-01-17T14:09:56.525Z,98133.13
2023-01-17T14:12:59.143Z,98111.88
2023-01-17T14:16:02.450Z,98095.06
2023-01-17T14:19:05.083Z,98086.59
2023-01-17T14:22:28.022Z,98075.50
2023-01-17T14:25:40.579Z,98065.28
2023-01-17T14:28:43.100Z,98056.84
2023-01-17T14:31:45.809Z,98056.19
2023-01-17T14:34:50.502Z,98057.91
2023-01-17T14:37:53.455Z,98051.53
2023-01-17T14:41:09.807Z,98051.91
2023-01-17T14:44:12.424Z,98048.19
2023-01-17T14:47:15.216Z,98039.53
2023-01-17T14:50:29.563Z,98043.53
2023-01-17T14:53:33.372Z,98027.50
2023-01-17T14:56:35.969Z,98026.47
2023-01-17T14:59:38.546Z,98031.81
2023-01-17T15:02:43.328Z,98025.31
2023-01-17T15:05:47.723Z,98027.00
2023-01-17T15:08:51.978Z,98027.31
2023-01-17T15:11:54.681Z,98028.22
2023-01-17T15:14:58.851Z,98025.50
2023-01-17T15:18:19.514Z,98040.03
2023-01-17T15:21:27.324Z,98026.22
2023-01-17T15:24:34.665Z,98032.91
2023-01-17T15:27:37.454Z,98034.06
2023-01-17T15:31:09.605Z,98027.91
2023-01-17T15:34:31.606Z,98018.56
2023-01-17T15:37:36.649Z,98007.00
2023-01-17T15:40:43.620Z,98006.53
2023-01-17T15:43:46.217Z,98011.59
2023-01-17T15:46:48.900Z,97996.03
2023-01-17T15:49:51.940Z,97984.97
2023-01-17T15:52:56.194Z,97980.28
2023-01-17T15:55:59.100Z,97984.09
2023-01-17T15:59:40.879Z,97974.97
2023-01-17T16:02:44.116Z,97978.72
2023-01-17T16:05:47.054Z,97972.16
2023-01-17T16:08:52.749Z,97966.91
2023-01-17T16:11:55.355Z,97966.34
2023-01-17T16:15:11.341Z,97961.53
